Chicago, Illinois
Traffic Map
Current Weather Conditions
Chicago, Illinois
Overcast Light Snow
Overcast
29°
Feels Like: 19°
Wind Chill: 19° Ceiling: 1300
Heat Index: 29° Visibility: 2mi
Dew Point: 24° Wind: 13mph
Humidity: 82% Direction: 20° (NNE)
Pressure: 30.09in Gusts: 0mph
Raw Report DataKMDW 271021Z 02011KT 2SM -SN BR BKN013 OVC040 M02/M04 A3009 RMK AO2 P0000 T10171044
Traffic Incident Summary
Active as of:
Severity:
Category:
InformationThere was an issue retrieving the traffic information for this location. Please try a different location or try again shortly.
Advertisements
Track Severe Weather on mobile